sensor_id;sensor_type;location;lat;lon;timestamp;pressure;altitude;pressure_sealevel;temperature
69007;BMP180;56061;51.748;19.620;2022-12-20T00:01:27;99591.20;;;1.20
69007;BMP180;56061;51.748;19.620;2022-12-20T00:03:57;99588.40;;;1.20
69007;BMP180;56061;51.748;19.620;2022-12-20T00:06:25;99592.00;;;1.26
69007;BMP180;56061;51.748;19.620;2022-12-20T00:08:58;99586.00;;;1.30
69007;BMP180;56061;51.748;19.620;2022-12-20T00:11:27;99586.40;;;1.30
69007;BMP180;56061;51.748;19.620;2022-12-20T00:13:54;99585.40;;;1.30
69007;BMP180;56061;51.748;19.620;2022-12-20T00:16:24;99585.00;;;1.30
69007;BMP180;56061;51.748;19.620;2022-12-20T00:18:54;99580.00;;;1.30
69007;BMP180;56061;51.748;19.620;2022-12-20T00:21:22;99579.60;;;1.30
69007;BMP180;56061;51.748;19.620;2022-12-20T00:23:50;99583.40;;;1.30
69007;BMP180;56061;51.748;19.620;2022-12-20T00:26:20;99580.20;;;1.30
69007;BMP180;56061;51.748;19.620;2022-12-20T00:28:47;99582.60;;;1.30
69007;BMP180;56061;51.748;19.620;2022-12-20T00:31:17;99579.20;;;1.30
69007;BMP180;56061;51.748;19.620;2022-12-20T00:33:47;99584.00;;;1.30
69007;BMP180;56061;51.748;19.620;2022-12-20T00:36:15;99579.40;;;1.30
69007;BMP180;56061;51.748;19.620;2022-12-20T00:38:44;99584.00;;;1.30
69007;BMP180;56061;51.748;19.620;2022-12-20T00:41:15;99580.60;;;1.30
69007;BMP180;56061;51.748;19.620;2022-12-20T00:43:43;99583.40;;;1.36
69007;BMP180;56061;51.748;19.620;2022-12-20T00:46:12;99583.20;;;1.40
69007;BMP180;56061;51.748;19.620;2022-12-20T00:48:40;99574.80;;;1.40
69007;BMP180;56061;51.748;19.620;2022-12-20T00:51:11;99560.40;;;1.40
69007;BMP180;56061;51.748;19.620;2022-12-20T00:53:38;99545.60;;;1.40
69007;BMP180;56061;51.748;19.620;2022-12-20T00:56:06;99541.40;;;1.40
69007;BMP180;56061;51.748;19.620;2022-12-20T00:58:35;99541.40;;;1.40
69007;BMP180;56061;51.748;19.620;2022-12-20T01:01:04;99542.60;;;1.40
69007;BMP180;56061;51.748;19.620;2022-12-20T01:03:30;99540.40;;;1.40
69007;BMP180;56061;51.748;19.620;2022-12-20T01:06:00;99542.20;;;1.40
69007;BMP180;56061;51.748;19.620;2022-12-20T01:08:29;99538.20;;;1.40
69007;BMP180;56061;51.748;19.620;2022-12-20T01:13:37;99532.00;;;1.48
69007;BMP180;56061;51.748;19.620;2022-12-20T01:16:21;99531.40;;;1.50
69007;BMP180;56061;51.748;19.620;2022-12-20T01:18:49;99521.60;;;1.50
69007;BMP180;56061;51.748;19.620;2022-12-20T01:21:18;99522.00;;;1.50
69007;BMP180;56061;51.748;19.620;2022-12-20T01:23:45;99529.40;;;1.50
69007;BMP180;56061;51.748;19.620;2022-12-20T01:26:16;99526.80;;;1.50
69007;BMP180;56061;51.748;19.620;2022-12-20T01:28:45;99518.60;;;1.50
69007;BMP180;56061;51.748;19.620;2022-12-20T01:31:15;99510.40;;;1.50
69007;BMP180;56061;51.748;19.620;2022-12-20T01:33:44;99500.40;;;1.50
69007;BMP180;56061;51.748;19.620;2022-12-20T01:36:16;99497.80;;;1.50
69007;BMP180;56061;51.748;19.620;2022-12-20T01:38:43;99501.40;;;1.50
69007;BMP180;56061;51.748;19.620;2022-12-20T01:41:21;99501.40;;;1.52
69007;BMP180;56061;51.748;19.620;2022-12-20T01:46:21;99487.60;;;1.50
69007;BMP180;56061;51.748;19.620;2022-12-20T01:48:54;99492.00;;;1.58
69007;BMP180;56061;51.748;19.620;2022-12-20T01:51:23;99487.00;;;1.60
69007;BMP180;56061;51.748;19.620;2022-12-20T01:53:59;99490.40;;;1.60
69007;BMP180;56061;51.748;19.620;2022-12-20T01:56:27;99488.20;;;1.60
69007;BMP180;56061;51.748;19.620;2022-12-20T01:58:55;99493.00;;;1.60
69007;BMP180;56061;51.748;19.620;2022-12-20T02:01:24;99490.40;;;1.60
69007;BMP180;56061;51.748;19.620;2022-12-20T02:03:52;99496.40;;;1.60
69007;BMP180;56061;51.748;19.620;2022-12-20T02:06:24;99494.80;;;1.60
69007;BMP180;56061;51.748;19.620;2022-12-20T02:08:56;99489.20;;;1.60
69007;BMP180;56061;51.748;19.620;2022-12-20T02:21:11;99485.80;;;1.70
69007;BMP180;56061;51.748;19.620;2022-12-20T02:32:35;99461.80;;;1.70
69007;BMP180;56061;51.748;19.620;2022-12-20T02:35:07;99455.00;;;1.70
69007;BMP180;56061;51.748;19.620;2022-12-20T02:37:35;99462.60;;;1.70
69007;BMP180;56061;51.748;19.620;2022-12-20T02:40:03;99447.80;;;1.76
69007;BMP180;56061;51.748;19.620;2022-12-20T02:42:32;99442.00;;;1.80
69007;BMP180;56061;51.748;19.620;2022-12-20T02:45:05;99442.00;;;1.80
69007;BMP180;56061;51.748;19.620;2022-12-20T02:47:59;99446.60;;;1.80
69007;BMP180;56061;51.748;19.620;2022-12-20T02:50:45;99445.20;;;1.80
69007;BMP180;56061;51.748;19.620;2022-12-20T02:53:15;99451.40;;;1.80
69007;BMP180;56061;51.748;19.620;2022-12-20T02:55:51;99471.40;;;1.80
69007;BMP180;56061;51.748;19.620;2022-12-20T03:01:18;99493.00;;;1.80
69007;BMP180;56061;51.748;19.620;2022-12-20T03:03:46;99490.60;;;1.84
69007;BMP180;56061;51.748;19.620;2022-12-20T03:06:13;99472.20;;;1.90
69007;BMP180;56061;51.748;19.620;2022-12-20T03:08:40;99453.60;;;1.90
69007;BMP180;56061;51.748;19.620;2022-12-20T03:11:06;99442.60;;;1.90
69007;BMP180;56061;51.748;19.620;2022-12-20T03:13:33;99442.20;;;1.90
69007;BMP180;56061;51.748;19.620;2022-12-20T03:15:59;99437.20;;;1.90
69007;BMP180;56061;51.748;19.620;2022-12-20T03:18:25;99444.40;;;1.96
69007;BMP180;56061;51.748;19.620;2022-12-20T03:20:52;99430.60;;;1.92
69007;BMP180;56061;51.748;19.620;2022-12-20T03:23:19;99436.00;;;1.90
69007;BMP180;56061;51.748;19.620;2022-12-20T03:25:47;99434.20;;;1.96
69007;BMP180;56061;51.748;19.620;2022-12-20T03:28:14;99433.00;;;1.94
69007;BMP180;56061;51.748;19.620;2022-12-20T03:30:41;99428.20;;;2.00
69007;BMP180;56061;51.748;19.620;2022-12-20T03:33:07;99427.40;;;2.00
69007;BMP180;56061;51.748;19.620;2022-12-20T03:35:34;99421.60;;;2.00
69007;BMP180;56061;51.748;19.620;2022-12-20T03:38:00;99410.80;;;2.02
69007;BMP180;56061;51.748;19.620;2022-12-20T03:40:27;99407.20;;;2.08
69007;BMP180;56061;51.748;19.620;2022-12-20T03:42:53;99413.20;;;2.00
69007;BMP180;56061;51.748;19.620;2022-12-20T03:45:20;99416.20;;;2.00
69007;BMP180;56061;51.748;19.620;2022-12-20T03:47:46;99415.60;;;2.00
69007;BMP180;56061;51.748;19.620;2022-12-20T03:50:13;99425.20;;;2.00
69007;BMP180;56061;51.748;19.620;2022-12-20T03:52:40;99435.20;;;2.00
69007;BMP180;56061;51.748;19.620;2022-12-20T03:55:08;99437.60;;;2.00
69007;BMP180;56061;51.748;19.620;2022-12-20T03:57:35;99441.80;;;2.08
69007;BMP180;56061;51.748;19.620;2022-12-20T04:00:02;99433.20;;;2.10
69007;BMP180;56061;51.748;19.620;2022-12-20T04:02:29;99422.00;;;2.10
69007;BMP180;56061;51.748;19.620;2022-12-20T04:04:56;99413.00;;;2.02
69007;BMP180;56061;51.748;19.620;2022-12-20T04:07:22;99415.20;;;2.00
69007;BMP180;56061;51.748;19.620;2022-12-20T04:09:49;99419.00;;;2.00
69007;BMP180;56061;51.748;19.620;2022-12-20T04:12:15;99415.20;;;2.00
69007;BMP180;56061;51.748;19.620;2022-12-20T04:14:41;99412.20;;;2.00
69007;BMP180;56061;51.748;19.620;2022-12-20T04:17:08;99414.80;;;2.00
69007;BMP180;56061;51.748;19.620;2022-12-20T04:19:34;99409.80;;;2.00
69007;BMP180;56061;51.748;19.620;2022-12-20T04:22:01;99407.00;;;2.00
69007;BMP180;56061;51.748;19.620;2022-12-20T04:24:31;99403.80;;;2.00
69007;BMP180;56061;51.748;19.620;2022-12-20T04:26:58;99407.20;;;2.00
69007;BMP180;56061;51.748;19.620;2022-12-20T04:29:24;99404.80;;;2.00
69007;BMP180;56061;51.748;19.620;2022-12-20T04:31:50;99408.20;;;2.00
69007;BMP180;56061;51.748;19.620;2022-12-20T04:34:17;99412.20;;;2.00
69007;BMP180;56061;51.748;19.620;2022-12-20T04:36:44;99404.20;;;2.00
69007;BMP180;56061;51.748;19.620;2022-12-20T04:39:10;99400.80;;;2.00
69007;BMP180;56061;51.748;19.620;2022-12-20T04:41:37;99404.40;;;2.00
69007;BMP180;56061;51.748;19.620;2022-12-20T04:44:05;99405.20;;;2.00
69007;BMP180;56061;51.748;19.620;2022-12-20T04:46:32;99414.00;;;2.00
69007;BMP180;56061;51.748;19.620;2022-12-20T04:48:58;99418.80;;;2.00
69007;BMP180;56061;51.748;19.620;2022-12-20T04:51:26;99434.00;;;2.00
69007;BMP180;56061;51.748;19.620;2022-12-20T04:53:54;99433.20;;;2.00
69007;BMP180;56061;51.748;19.620;2022-12-20T04:56:28;99438.20;;;2.00
69007;BMP180;56061;51.748;19.620;2022-12-20T04:58:57;99429.40;;;2.00
69007;BMP180;56061;51.748;19.620;2022-12-20T05:01:24;99428.60;;;2.00
69007;BMP180;56061;51.748;19.620;2022-12-20T05:03:52;99432.40;;;2.00
69007;BMP180;56061;51.748;19.620;2022-12-20T05:06:18;99423.80;;;2.00
69007;BMP180;56061;51.748;19.620;2022-12-20T05:08:46;99416.80;;;2.00
69007;BMP180;56061;51.748;19.620;2022-12-20T05:11:13;99425.80;;;2.00
69007;BMP180;56061;51.748;19.620;2022-12-20T05:13:39;99433.80;;;2.00
69007;BMP180;56061;51.748;19.620;2022-12-20T05:16:06;99445.40;;;2.00
69007;BMP180;56061;51.748;19.620;2022-12-20T05:18:33;99446.40;;;2.00
69007;BMP180;56061;51.748;19.620;2022-12-20T05:21:01;99442.20;;;2.00
69007;BMP180;56061;51.748;19.620;2022-12-20T05:23:47;99432.40;;;1.90
69007;BMP180;56061;51.748;19.620;2022-12-20T05:26:36;99432.40;;;1.80
69007;BMP180;56061;51.748;19.620;2022-12-20T05:29:05;99434.20;;;1.80
69007;BMP180;56061;51.748;19.620;2022-12-20T05:31:32;99439.80;;;1.74
69007;BMP180;56061;51.748;19.620;2022-12-20T05:33:58;99436.80;;;1.80
69007;BMP180;56061;51.748;19.620;2022-12-20T05:36:25;99449.40;;;1.80
69007;BMP180;56061;51.748;19.620;2022-12-20T05:38:52;99441.40;;;1.70
69007;BMP180;56061;51.748;19.620;2022-12-20T05:41:23;99435.80;;;1.70
69007;BMP180;56061;51.748;19.620;2022-12-20T05:43:49;99435.80;;;1.70
69007;BMP180;56061;51.748;19.620;2022-12-20T05:46:16;99427.60;;;1.62
69007;BMP180;56061;51.748;19.620;2022-12-20T05:48:43;99420.40;;;1.70
69007;BMP180;56061;51.748;19.620;2022-12-20T05:51:09;99423.20;;;1.70
69007;BMP180;56061;51.748;19.620;2022-12-20T05:53:35;99417.40;;;1.66
69007;BMP180;56061;51.748;19.620;2022-12-20T05:56:02;99420.20;;;1.60
69007;BMP180;56061;51.748;19.620;2022-12-20T05:58:29;99425.60;;;1.50
69007;BMP180;56061;51.748;19.620;2022-12-20T06:00:55;99416.80;;;1.50
69007;BMP180;56061;51.748;19.620;2022-12-20T06:03:22;99407.20;;;1.40
69007;BMP180;56061;51.748;19.620;2022-12-20T06:05:49;99399.80;;;1.40
69007;BMP180;56061;51.748;19.620;2022-12-20T06:08:15;99395.00;;;1.50
69007;BMP180;56061;51.748;19.620;2022-12-20T06:10:41;99406.20;;;1.60
69007;BMP180;56061;51.748;19.620;2022-12-20T06:13:09;99430.00;;;1.60
69007;BMP180;56061;51.748;19.620;2022-12-20T06:15:36;99432.00;;;1.62
69007;BMP180;56061;51.748;19.620;2022-12-20T06:18:04;99420.60;;;1.50
69007;BMP180;56061;51.748;19.620;2022-12-20T06:20:34;99416.00;;;1.50
69007;BMP180;56061;51.748;19.620;2022-12-20T06:23:02;99409.00;;;1.60
69007;BMP180;56061;51.748;19.620;2022-12-20T06:25:29;99406.60;;;1.60
69007;BMP180;56061;51.748;19.620;2022-12-20T06:27:56;99415.20;;;1.60
69007;BMP180;56061;51.748;19.620;2022-12-20T06:30:23;99415.60;;;1.50
69007;BMP180;56061;51.748;19.620;2022-12-20T06:32:57;99415.20;;;1.40
69007;BMP180;56061;51.748;19.620;2022-12-20T06:35:23;99411.00;;;1.40
69007;BMP180;56061;51.748;19.620;2022-12-20T06:37:50;99404.80;;;1.40
69007;BMP180;56061;51.748;19.620;2022-12-20T06:40:16;99409.60;;;1.30
69007;BMP180;56061;51.748;19.620;2022-12-20T06:42:43;99404.00;;;1.30
69007;BMP180;56061;51.748;19.620;2022-12-20T06:45:10;99410.00;;;1.20
69007;BMP180;56061;51.748;19.620;2022-12-20T06:47:37;99418.60;;;1.20
69007;BMP180;56061;51.748;19.620;2022-12-20T06:50:05;99418.80;;;1.20
69007;BMP180;56061;51.748;19.620;2022-12-20T06:52:32;99418.20;;;1.30
69007;BMP180;56061;51.748;19.620;2022-12-20T06:54:58;99419.80;;;1.30
69007;BMP180;56061;51.748;19.620;2022-12-20T06:57:25;99421.00;;;1.30
69007;BMP180;56061;51.748;19.620;2022-12-20T06:59:52;99424.20;;;1.38
69007;BMP180;56061;51.748;19.620;2022-12-20T07:02:18;99424.40;;;1.32
69007;BMP180;56061;51.748;19.620;2022-12-20T07:04:45;99423.00;;;1.32
69007;BMP180;56061;51.748;19.620;2022-12-20T07:07:12;99422.80;;;1.40
69007;BMP180;56061;51.748;19.620;2022-12-20T07:09:39;99418.80;;;1.40
69007;BMP180;56061;51.748;19.620;2022-12-20T07:12:08;99412.60;;;1.40
69007;BMP180;56061;51.748;19.620;2022-12-20T07:14:34;99416.80;;;1.40
69007;BMP180;56061;51.748;19.620;2022-12-20T07:17:03;99412.40;;;1.40
69007;BMP180;56061;51.748;19.620;2022-12-20T07:19:30;99403.20;;;1.46
69007;BMP180;56061;51.748;19.620;2022-12-20T07:21:57;99412.00;;;1.42
69007;BMP180;56061;51.748;19.620;2022-12-20T07:24:24;99419.00;;;1.30
69007;BMP180;56061;51.748;19.620;2022-12-20T07:26:51;99417.80;;;1.40
69007;BMP180;56061;51.748;19.620;2022-12-20T07:29:18;99415.80;;;1.40
69007;BMP180;56061;51.748;19.620;2022-12-20T07:31:44;99412.80;;;1.48
69007;BMP180;56061;51.748;19.620;2022-12-20T07:34:11;99418.00;;;1.50
69007;BMP180;56061;51.748;19.620;2022-12-20T07:36:38;99420.00;;;1.56
69007;BMP180;56061;51.748;19.620;2022-12-20T07:39:05;99425.80;;;1.60
69007;BMP180;56061;51.748;19.620;2022-12-20T07:41:31;99421.60;;;1.70
69007;BMP180;56061;51.748;19.620;2022-12-20T07:43:58;99414.20;;;1.70
69007;BMP180;56061;51.748;19.620;2022-12-20T07:46:25;99423.20;;;1.80
69007;BMP180;56061;51.748;19.620;2022-12-20T07:48:51;99428.60;;;1.82
69007;BMP180;56061;51.748;19.620;2022-12-20T07:51:30;99431.00;;;1.90
69007;BMP180;56061;51.748;19.620;2022-12-20T07:54:17;99431.20;;;2.00
69007;BMP180;56061;51.748;19.620;2022-12-20T07:56:50;99426.20;;;2.00
69007;BMP180;56061;51.748;19.620;2022-12-20T07:59:25;99418.00;;;2.08
69007;BMP180;56061;51.748;19.620;2022-12-20T08:01:55;99420.00;;;2.10
69007;BMP180;56061;51.748;19.620;2022-12-20T08:04:30;99414.40;;;2.10
69007;BMP180;56061;51.748;19.620;2022-12-20T08:07:00;99403.80;;;2.14
69007;BMP180;56061;51.748;19.620;2022-12-20T08:09:34;99397.00;;;2.20
69007;BMP180;56061;51.748;19.620;2022-12-20T08:12:02;99397.20;;;2.20
69007;BMP180;56061;51.748;19.620;2022-12-20T08:14:29;99401.80;;;2.20
69007;BMP180;56061;51.748;19.620;2022-12-20T08:16:55;99402.40;;;2.30
69007;BMP180;56061;51.748;19.620;2022-12-20T08:19:22;99406.60;;;2.30
69007;BMP180;56061;51.748;19.620;2022-12-20T08:21:57;99408.40;;;2.30
69007;BMP180;56061;51.748;19.620;2022-12-20T08:24:23;99416.00;;;2.40
69007;BMP180;56061;51.748;19.620;2022-12-20T08:26:50;99406.60;;;2.40
69007;BMP180;56061;51.748;19.620;2022-12-20T08:29:16;99400.60;;;2.50
69007;BMP180;56061;51.748;19.620;2022-12-20T08:31:43;99401.20;;;2.52
69007;BMP180;56061;51.748;19.620;2022-12-20T08:34:16;99398.80;;;2.60
69007;BMP180;56061;51.748;19.620;2022-12-20T08:36:42;99408.80;;;2.70
69007;BMP180;56061;51.748;19.620;2022-12-20T08:39:09;99409.80;;;2.78
69007;BMP180;56061;51.748;19.620;2022-12-20T08:41:36;99404.20;;;2.84
69007;BMP180;56061;51.748;19.620;2022-12-20T08:44:04;99395.00;;;2.90
69007;BMP180;56061;51.748;19.620;2022-12-20T08:46:31;99394.20;;;3.00
69007;BMP180;56061;51.748;19.620;2022-12-20T08:48:58;99398.20;;;3.00
69007;BMP180;56061;51.748;19.620;2022-12-20T08:51:24;99401.20;;;3.10
69007;BMP180;56061;51.748;19.620;2022-12-20T08:53:51;99399.00;;;3.10
69007;BMP180;56061;51.748;19.620;2022-12-20T08:56:18;99395.80;;;3.10
69007;BMP180;56061;51.748;19.620;2022-12-20T08:58:46;99388.40;;;3.10
69007;BMP180;56061;51.748;19.620;2022-12-20T09:01:17;99390.20;;;3.18
69007;BMP180;56061;51.748;19.620;2022-12-20T09:03:46;99383.20;;;3.20
69007;BMP180;56061;51.748;19.620;2022-12-20T09:06:19;99384.80;;;3.20
69007;BMP180;56061;51.748;19.620;2022-12-20T09:08:47;99386.60;;;3.30
69007;BMP180;56061;51.748;19.620;2022-12-20T09:11:18;99381.60;;;3.40
69007;BMP180;56061;51.748;19.620;2022-12-20T09:13:48;99381.20;;;3.46
69007;BMP180;56061;51.748;19.620;2022-12-20T09:16:19;99373.20;;;3.50
69007;BMP180;56061;51.748;19.620;2022-12-20T09:18:51;99366.20;;;3.54
69007;BMP180;56061;51.748;19.620;2022-12-20T09:21:21;99369.20;;;3.60
69007;BMP180;56061;51.748;19.620;2022-12-20T09:23:53;99367.80;;;3.60
69007;BMP180;56061;51.748;19.620;2022-12-20T09:26:21;99370.20;;;3.60
69007;BMP180;56061;51.748;19.620;2022-12-20T09:28:49;99374.00;;;3.54
69007;BMP180;56061;51.748;19.620;2022-12-20T09:31:20;99372.00;;;3.50
69007;BMP180;56061;51.748;19.620;2022-12-20T09:33:46;99372.20;;;3.56
69007;BMP180;56061;51.748;19.620;2022-12-20T09:36:17;99373.40;;;3.60
69007;BMP180;56061;51.748;19.620;2022-12-20T09:38:45;99373.20;;;3.60
69007;BMP180;56061;51.748;19.620;2022-12-20T09:41:33;99383.60;;;3.70
69007;BMP180;56061;51.748;19.620;2022-12-20T09:44:11;99381.60;;;3.80
69007;BMP180;56061;51.748;19.620;2022-12-20T09:46:41;99382.20;;;3.82
69007;BMP180;56061;51.748;19.620;2022-12-20T09:49:16;99382.60;;;3.90
69007;BMP180;56061;51.748;19.620;2022-12-20T09:52:18;99381.00;;;3.90
69007;BMP180;56061;51.748;19.620;2022-12-20T09:55:23;99369.20;;;4.00
69007;BMP180;56061;51.748;19.620;2022-12-20T09:58:13;99375.20;;;4.08
69007;BMP180;56061;51.748;19.620;2022-12-20T10:00:47;99378.00;;;4.10
69007;BMP180;56061;51.748;19.620;2022-12-20T10:03:31;99380.40;;;4.20
69007;BMP180;56061;51.748;19.620;2022-12-20T10:09:59;99393.00;;;4.40
69007;BMP180;56061;51.748;19.620;2022-12-20T10:12:51;99393.60;;;4.50
69007;BMP180;56061;51.748;19.620;2022-12-20T10:15:32;99393.80;;;4.52
69007;BMP180;56061;51.748;19.620;2022-12-20T10:18:23;99400.20;;;4.60
69007;BMP180;56061;51.748;19.620;2022-12-20T10:22:01;99390.20;;;4.50
69007;BMP180;56061;51.748;19.620;2022-12-20T10:24:02;99383.60;;;4.50
69007;BMP180;56061;51.748;19.620;2022-12-20T10:26:32;99390.40;;;4.40
69007;BMP180;56061;51.748;19.620;2022-12-20T10:28:59;99375.80;;;4.40
69007;BMP180;56061;51.748;19.620;2022-12-20T10:31:26;99370.00;;;4.30
69007;BMP180;56061;51.748;19.620;2022-12-20T10:33:53;99366.00;;;4.30
69007;BMP180;56061;51.748;19.620;2022-12-20T10:36:33;99362.60;;;4.40
69007;BMP180;56061;51.748;19.620;2022-12-20T10:39:07;99357.00;;;4.40
69007;BMP180;56061;51.748;19.620;2022-12-20T10:46:51;99343.60;;;4.34
69007;BMP180;56061;51.748;19.620;2022-12-20T10:49:34;99334.60;;;4.30
69007;BMP180;56061;51.748;19.620;2022-12-20T10:54:40;99315.80;;;4.20
69007;BMP180;56061;51.748;19.620;2022-12-20T10:57:28;99318.60;;;4.20
69007;BMP180;56061;51.748;19.620;2022-12-20T11:00:00;99326.20;;;4.20
69007;BMP180;56061;51.748;19.620;2022-12-20T11:02:37;99326.20;;;4.10
69007;BMP180;56061;51.748;19.620;2022-12-20T11:07:37;99318.20;;;4.10
69007;BMP180;56061;51.748;19.620;2022-12-20T11:10:22;99316.60;;;4.10
69007;BMP180;56061;51.748;19.620;2022-12-20T11:12:58;99316.20;;;4.00
69007;BMP180;56061;51.748;19.620;2022-12-20T11:15:35;99310.20;;;4.00
69007;BMP180;56061;51.748;19.620;2022-12-20T11:18:14;99301.20;;;3.90
69007;BMP180;56061;51.748;19.620;2022-12-20T11:21:02;99292.80;;;3.90
69007;BMP180;56061;51.748;19.620;2022-12-20T11:30:02;99263.40;;;3.80
69007;BMP180;56061;51.748;19.620;2022-12-20T11:32:56;99264.80;;;3.80
69007;BMP180;56061;51.748;19.620;2022-12-20T11:40:54;99268.00;;;3.90
69007;BMP180;56061;51.748;19.620;2022-12-20T11:43:59;99266.40;;;3.90
69007;BMP180;56061;51.748;19.620;2022-12-20T11:47:18;99258.20;;;4.00
69007;BMP180;56061;51.748;19.620;2022-12-20T11:52:53;99269.00;;;4.20
69007;BMP180;56061;51.748;19.620;2022-12-20T11:55:27;99270.20;;;4.30
69007;BMP180;56061;51.748;19.620;2022-12-20T11:58:12;99274.80;;;4.40
69007;BMP180;56061;51.748;19.620;2022-12-20T12:00:57;99272.80;;;4.50
69007;BMP180;56061;51.748;19.620;2022-12-20T12:03:35;99271.40;;;4.60
69007;BMP180;56061;51.748;19.620;2022-12-20T12:06:15;99275.80;;;4.70
69007;BMP180;56061;51.748;19.620;2022-12-20T12:11:31;99270.40;;;4.80
69007;BMP180;56061;51.748;19.620;2022-12-20T12:14:37;99267.20;;;4.82
69007;BMP180;56061;51.748;19.620;2022-12-20T12:17:58;99265.80;;;4.90
69007;BMP180;56061;51.748;19.620;2022-12-20T12:23:22;99280.00;;;4.90
69007;BMP180;56061;51.748;19.620;2022-12-20T12:25:51;99272.00;;;4.90
69007;BMP180;56061;51.748;19.620;2022-12-20T12:28:21;99272.60;;;4.90
69007;BMP180;56061;51.748;19.620;2022-12-20T12:30:59;99278.20;;;4.90
69007;BMP180;56061;51.748;19.620;2022-12-20T12:33:59;99285.80;;;4.80
69007;BMP180;56061;51.748;19.620;2022-12-20T12:43:22;99281.40;;;4.50
69007;BMP180;56061;51.748;19.620;2022-12-20T12:45:57;99285.20;;;4.50
69007;BMP180;56061;51.748;19.620;2022-12-20T12:51:12;99291.00;;;4.48
69007;BMP180;56061;51.748;19.620;2022-12-20T12:53:53;99286.20;;;4.40
69007;BMP180;56061;51.748;19.620;2022-12-20T13:04:27;99269.00;;;4.30
69007;BMP180;56061;51.748;19.620;2022-12-20T13:07:24;99263.20;;;4.30
69007;BMP180;56061;51.748;19.620;2022-12-20T13:09:50;99249.60;;;4.30
69007;BMP180;56061;51.748;19.620;2022-12-20T13:17:58;99257.20;;;4.20
69007;BMP180;56061;51.748;19.620;2022-12-20T13:20:29;99244.40;;;4.20
69007;BMP180;56061;51.748;19.620;2022-12-20T13:25:45;99235.80;;;4.20
69007;BMP180;56061;51.748;19.620;2022-12-20T13:30:47;99249.20;;;4.20
69007;BMP180;56061;51.748;19.620;2022-12-20T13:33:44;99244.20;;;4.20
69007;BMP180;56061;51.748;19.620;2022-12-20T13:46:49;99236.00;;;4.10
69007;BMP180;56061;51.748;19.620;2022-12-20T13:49:25;99233.20;;;4.10
69007;BMP180;56061;51.748;19.620;2022-12-20T13:52:19;99228.60;;;4.10
69007;BMP180;56061;51.748;19.620;2022-12-20T13:54:52;99237.80;;;4.00
69007;BMP180;56061;51.748;19.620;2022-12-20T13:57:28;99240.60;;;4.00
69007;BMP180;56061;51.748;19.620;2022-12-20T14:00:00;99251.80;;;4.00
69007;BMP180;56061;51.748;19.620;2022-12-20T14:02:39;99257.80;;;4.00
69007;BMP180;56061;51.748;19.620;2022-12-20T14:05:23;99262.80;;;4.00
69007;BMP180;56061;51.748;19.620;2022-12-20T14:08:00;99257.80;;;3.90
69007;BMP180;56061;51.748;19.620;2022-12-20T14:10:31;99255.20;;;3.90
69007;BMP180;56061;51.748;19.620;2022-12-20T14:12:58;99252.80;;;3.80
69007;BMP180;56061;51.748;19.620;2022-12-20T14:15:33;99254.20;;;3.80
69007;BMP180;56061;51.748;19.620;2022-12-20T14:18:18;99256.60;;;3.70
69007;BMP180;56061;51.748;19.620;2022-12-20T14:20:52;99254.20;;;3.70
69007;BMP180;56061;51.748;19.620;2022-12-20T14:23:31;99243.40;;;3.60
69007;BMP180;56061;51.748;19.620;2022-12-20T14:26:01;99239.00;;;3.60
69007;BMP180;56061;51.748;19.620;2022-12-20T14:29:00;99238.00;;;3.60
69007;BMP180;56061;51.748;19.620;2022-12-20T14:31:39;99236.00;;;3.56
69007;BMP180;56061;51.748;19.620;2022-12-20T14:36:46;99239.80;;;3.56
69007;BMP180;56061;51.748;19.620;2022-12-20T14:39:31;99238.60;;;3.50
69007;BMP180;56061;51.748;19.620;2022-12-20T14:44:33;99232.00;;;3.50
69007;BMP180;56061;51.748;19.620;2022-12-20T14:47:19;99238.20;;;3.48
69007;BMP180;56061;51.748;19.620;2022-12-20T14:49:52;99237.80;;;3.42
69007;BMP180;56061;51.748;19.620;2022-12-20T14:52:29;99226.60;;;3.40
69007;BMP180;56061;51.748;19.620;2022-12-20T14:55:06;99224.20;;;3.40
69007;BMP180;56061;51.748;19.620;2022-12-20T15:11:15;99209.40;;;3.28
69007;BMP180;56061;51.748;19.620;2022-12-20T15:13:52;99210.60;;;3.20
69007;BMP180;56061;51.748;19.620;2022-12-20T15:16:26;99211.20;;;3.20
69007;BMP180;56061;51.748;19.620;2022-12-20T15:19:01;99210.20;;;3.20
69007;BMP180;56061;51.748;19.620;2022-12-20T15:21:34;99206.40;;;3.20
69007;BMP180;56061;51.748;19.620;2022-12-20T15:24:04;99204.80;;;3.10
69007;BMP180;56061;51.748;19.620;2022-12-20T15:26:35;99206.80;;;3.10
69007;BMP180;56061;51.748;19.620;2022-12-20T15:29:03;99206.60;;;3.10
69007;BMP180;56061;51.748;19.620;2022-12-20T15:31:33;99215.60;;;3.10
69007;BMP180;56061;51.748;19.620;2022-12-20T15:34:35;99203.80;;;3.10
69007;BMP180;56061;51.748;19.620;2022-12-20T15:37:03;99200.20;;;3.00
69007;BMP180;56061;51.748;19.620;2022-12-20T15:39:32;99198.60;;;3.00
69007;BMP180;56061;51.748;19.620;2022-12-20T15:42:02;99200.20;;;3.00
69007;BMP180;56061;51.748;19.620;2022-12-20T15:44:31;99201.00;;;3.00
69007;BMP180;56061;51.748;19.620;2022-12-20T15:46:58;99202.60;;;3.00
69007;BMP180;56061;51.748;19.620;2022-12-20T15:49:29;99193.60;;;2.94
69007;BMP180;56061;51.748;19.620;2022-12-20T15:51:56;99196.00;;;2.90
69007;BMP180;56061;51.748;19.620;2022-12-20T15:54:28;99192.40;;;2.90
69007;BMP180;56061;51.748;19.620;2022-12-20T15:56:58;99194.00;;;2.90
69007;BMP180;56061;51.748;19.620;2022-12-20T15:59:25;99184.20;;;2.90
69007;BMP180;56061;51.748;19.620;2022-12-20T16:02:23;99185.00;;;2.90
69007;BMP180;56061;51.748;19.620;2022-12-20T16:04:53;99174.00;;;2.88
69007;BMP180;56061;51.748;19.620;2022-12-20T16:07:21;99175.60;;;2.80
69007;BMP180;56061;51.748;19.620;2022-12-20T16:09:48;99185.00;;;2.90
69007;BMP180;56061;51.748;19.620;2022-12-20T16:12:20;99180.80;;;2.80
69007;BMP180;56061;51.748;19.620;2022-12-20T16:14:47;99184.40;;;2.80
69007;BMP180;56061;51.748;19.620;2022-12-20T16:17:15;99185.60;;;2.80
69007;BMP180;56061;51.748;19.620;2022-12-20T16:19:42;99188.00;;;2.82
69007;BMP180;56061;51.748;19.620;2022-12-20T16:22:18;99197.00;;;2.82
69007;BMP180;56061;51.748;19.620;2022-12-20T16:24:46;99192.80;;;2.80
69007;BMP180;56061;51.748;19.620;2022-12-20T16:27:13;99183.40;;;2.80
69007;BMP180;56061;51.748;19.620;2022-12-20T16:29:40;99172.80;;;2.70
69007;BMP180;56061;51.748;19.620;2022-12-20T16:32:15;99171.60;;;2.70
69007;BMP180;56061;51.748;19.620;2022-12-20T16:34:43;99169.20;;;2.70